createdAt,value
2018-12-29T00:01:12.869Z,23.83
2018-12-29T00:06:15.060Z,24.87
2018-12-29T00:11:17.777Z,24.83
2018-12-29T00:16:20.187Z,27.10
2018-12-29T00:21:22.672Z,26.00
2018-12-29T00:26:24.878Z,25.40
2018-12-29T00:31:27.091Z,26.30
2018-12-29T00:36:29.303Z,26.43
2018-12-29T00:41:31.841Z,25.90
2018-12-29T00:46:34.495Z,28.87
2018-12-29T00:51:36.685Z,26.37
2018-12-29T00:56:38.838Z,29.20
2018-12-29T01:01:40.999Z,27.33
2018-12-29T01:06:43.149Z,29.30
2018-12-29T01:11:45.324Z,26.63
2018-12-29T01:16:47.589Z,28.87
2018-12-29T01:21:50.207Z,27.70
2018-12-29T01:26:52.630Z,26.40
2018-12-29T01:31:54.853Z,28.70
2018-12-29T01:36:57.679Z,29.30
2018-12-29T01:41:59.896Z,30.13
2018-12-29T01:47:02.638Z,31.50
2018-12-29T01:52:05.513Z,31.47
2018-12-29T01:57:08.257Z,32.13
2018-12-29T02:02:11.139Z,34.13
2018-12-29T02:07:14.019Z,37.47
2018-12-29T02:12:16.478Z,35.90
2018-12-29T02:17:19.172Z,40.13
2018-12-29T02:22:21.434Z,39.77
2018-12-29T02:27:23.823Z,45.63
2018-12-29T02:32:26.242Z,41.50
2018-12-29T02:37:28.451Z,37.00
2018-12-29T02:42:30.657Z,40.33
2018-12-29T02:47:33.551Z,41.50
2018-12-29T02:52:37.206Z,40.33
2018-12-29T02:57:39.637Z,38.17
2018-12-29T03:02:41.853Z,38.37
2018-12-29T03:07:44.061Z,38.73
2018-12-29T03:12:46.551Z,36.47
2018-12-29T03:17:48.750Z,34.70
2018-12-29T03:22:51.814Z,33.70
2018-12-29T03:27:54.253Z,36.20
2018-12-29T03:32:56.424Z,35.80
2018-12-29T03:37:59.329Z,36.00
2018-12-29T03:43:02.015Z,36.13
2018-12-29T03:48:04.205Z,34.17
2018-12-29T03:53:06.573Z,36.67
2018-12-29T03:58:09.220Z,36.70
2018-12-29T04:03:11.841Z,37.20
2018-12-29T04:08:14.282Z,37.80
2018-12-29T04:13:16.998Z,37.97
2018-12-29T04:18:19.428Z,38.00
2018-12-29T04:23:22.352Z,38.30
2018-12-29T04:28:24.656Z,36.73
2018-12-29T04:33:27.087Z,39.57
2018-12-29T04:38:29.747Z,36.10
2018-12-29T04:43:32.204Z,40.77
2018-12-29T04:48:34.757Z,40.30
2018-12-29T04:53:37.684Z,46.17
2018-12-29T04:58:39.853Z,42.33
2018-12-29T05:03:42.047Z,43.13
2018-12-29T05:08:44.949Z,40.37
2018-12-29T05:13:48.127Z,39.70
2018-12-29T05:18:50.782Z,41.60
2018-12-29T05:23:53.590Z,41.13
2018-12-29T05:28:55.801Z,40.00
2018-12-29T05:33:58.336Z,43.57
2018-12-29T05:39:00.794Z,41.30
2018-12-29T05:44:03.007Z,43.60
2018-12-29T05:49:05.188Z,39.57
2018-12-29T05:54:07.592Z,39.37
2018-12-29T05:59:10.127Z,36.80
2018-12-29T06:04:12.410Z,41.63
2018-12-29T06:09:14.591Z,39.10
2018-12-29T06:14:17.621Z,42.13
2018-12-29T06:19:20.777Z,39.17
2018-12-29T06:24:22.964Z,37.37
2018-12-29T06:29:25.656Z,42.57
2018-12-29T06:34:28.623Z,41.30
2018-12-29T06:39:31.068Z,40.37
2018-12-29T06:44:33.953Z,40.10
2018-12-29T06:49:36.267Z,40.93
2018-12-29T06:54:38.439Z,39.80
2018-12-29T06:59:40.603Z,39.10
2018-12-29T07:04:43.515Z,38.83
2018-12-29T07:09:46.188Z,39.83
2018-12-29T07:14:48.900Z,40.20
2018-12-29T07:19:51.781Z,39.07
2018-12-29T07:24:54.630Z,36.43
2018-12-29T07:29:57.310Z,41.10
2018-12-29T07:34:59.995Z,42.23
2018-12-29T07:40:02.405Z,33.30
2018-12-29T07:45:05.305Z,38.17
2018-12-29T07:50:07.480Z,39.97
2018-12-29T07:55:09.854Z,38.60
2018-12-29T08:00:12.140Z,44.23
2018-12-29T08:05:14.589Z,41.63
2018-12-29T08:10:16.857Z,43.67
2018-12-29T08:15:19.360Z,46.90
2018-12-29T08:20:21.603Z,47.50
2018-12-29T08:25:23.758Z,42.47
2018-12-29T08:30:26.724Z,45.13
2018-12-29T08:35:29.165Z,41.43
2018-12-29T08:40:31.351Z,46.20
2018-12-29T08:45:33.815Z,45.00
2018-12-29T08:50:36.016Z,53.33
2018-12-29T08:55:38.768Z,50.43
2018-12-29T09:00:41.152Z,47.90
2018-12-29T09:05:44.056Z,46.73
2018-12-29T09:10:46.183Z,48.03
2018-12-29T09:15:48.429Z,51.97
2018-12-29T09:20:50.631Z,45.73
2018-12-29T09:25:53.016Z,46.20
2018-12-29T09:30:55.301Z,42.93
2018-12-29T09:35:57.748Z,42.23
2018-12-29T09:41:00.122Z,37.40
2018-12-29T09:46:02.306Z,38.90
2018-12-29T09:51:05.229Z,46.00
2018-12-29T09:56:08.204Z,39.50
2018-12-29T10:01:11.159Z,37.43
2018-12-29T10:06:13.704Z,36.33
2018-12-29T10:11:16.012Z,40.33
2018-12-29T10:16:18.270Z,39.33
2018-12-29T10:21:20.743Z,39.87
2018-12-29T10:26:23.028Z,41.07
2018-12-29T10:31:25.820Z,41.63
2018-12-29T10:36:29.181Z,40.33
2018-12-29T10:41:32.306Z,41.93
2018-12-29T10:46:34.738Z,41.23
2018-12-29T10:51:37.400Z,41.23
2018-12-29T10:56:39.829Z,44.57
2018-12-29T11:01:42.026Z,43.80
2018-12-29T11:06:44.324Z,39.83
2018-12-29T11:11:46.858Z,40.77
2018-12-29T11:16:50.564Z,35.50
2018-12-29T11:21:53.054Z,39.27
2018-12-29T11:26:55.771Z,34.43
2018-12-29T11:31:59.075Z,38.33
2018-12-29T11:37:01.251Z,37.53
2018-12-29T11:42:03.800Z,35.77
2018-12-29T11:47:06.524Z,33.80
2018-12-29T11:52:09.805Z,39.77
2018-12-29T11:57:12.394Z,36.40
2018-12-29T12:02:15.135Z,39.57
2018-12-29T12:07:17.763Z,36.10
2018-12-29T12:12:20.869Z,41.43
2018-12-29T12:17:24.157Z,36.20
2018-12-29T12:22:26.444Z,36.00
2018-12-29T12:27:28.815Z,31.97
2018-12-29T12:32:31.633Z,35.77
2018-12-29T12:37:34.182Z,36.07
2018-12-29T12:42:36.647Z,39.40
2018-12-29T12:47:39.557Z,37.90
2018-12-29T12:52:41.972Z,34.57
2018-12-29T12:57:44.219Z,33.83
2018-12-29T13:02:47.118Z,30.07
2018-12-29T13:07:49.807Z,29.43
2018-12-29T13:12:52.475Z,29.80
2018-12-29T13:17:54.672Z,29.20
2018-12-29T13:22:56.858Z,28.27
2018-12-29T13:27:59.899Z,31.07
2018-12-29T13:33:02.254Z,30.90
2018-12-29T13:38:04.563Z,29.00
2018-12-29T13:43:07.292Z,28.13
2018-12-29T13:48:09.708Z,30.03
2018-12-29T13:53:12.471Z,33.87
2018-12-29T13:58:14.625Z,31.50
2018-12-29T14:03:16.890Z,29.83
2018-12-29T14:08:19.940Z,29.47
2018-12-29T14:13:22.625Z,29.73
2018-12-29T14:18:28.358Z,31.13
2018-12-29T14:23:29.139Z,32.20
2018-12-29T14:28:31.330Z,33.13
2018-12-29T14:33:33.542Z,32.90
2018-12-29T14:38:36.405Z,29.57
2018-12-29T14:43:38.609Z,34.17
2018-12-29T14:48:41.632Z,35.27
2018-12-29T14:53:43.885Z,32.57
2018-12-29T14:58:46.843Z,34.90
2018-12-29T15:03:49.386Z,30.37
2018-12-29T15:08:51.535Z,39.17
2018-12-29T15:13:53.715Z,33.97
2018-12-29T15:18:56.810Z,31.53
2018-12-29T15:24:00.006Z,32.30
2018-12-29T15:29:02.543Z,30.20
2018-12-29T15:34:05.318Z,34.37
2018-12-29T15:39:08.334Z,26.90
2018-12-29T15:44:10.791Z,31.77
2018-12-29T15:49:12.981Z,31.73
2018-12-29T15:54:15.932Z,31.33
2018-12-29T15:59:18.134Z,32.10
2018-12-29T16:04:20.885Z,31.65
2018-12-29T16:09:24.057Z,30.30
2018-12-29T16:14:27.197Z,27.20
2018-12-29T16:19:29.437Z,27.70
2018-12-29T16:24:32.454Z,28.47
2018-12-29T16:29:35.649Z,26.27
2018-12-29T16:34:37.836Z,24.23
2018-12-29T16:39:40.042Z,22.13
2018-12-29T16:44:42.383Z,21.47
2018-12-29T16:49:44.726Z,21.47
2018-12-29T16:54:47.637Z,20.43
2018-12-29T16:59:50.303Z,18.03
2018-12-29T17:04:52.745Z,19.47
2018-12-29T17:09:54.926Z,18.13
2018-12-29T17:14:58.441Z,16.17
2018-12-29T17:20:00.720Z,18.57
2018-12-29T17:25:03.949Z,17.07
2018-12-29T17:30:06.458Z,15.40
2018-12-29T17:35:09.060Z,17.27
2018-12-29T17:40:11.378Z,15.53
2018-12-29T17:45:14.247Z,18.43
2018-12-29T17:50:16.544Z,15.57
2018-12-29T17:55:19.461Z,14.23
2018-12-29T18:00:21.916Z,15.27
2018-12-29T18:05:24.072Z,13.97
2018-12-29T18:10:26.744Z,15.03
2018-12-29T18:15:29.018Z,14.43
2018-12-29T18:20:31.297Z,16.17
2018-12-29T18:25:33.504Z,12.13
2018-12-29T18:30:35.850Z,13.53
2018-12-29T18:35:38.005Z,14.53
2018-12-29T18:40:41.324Z,17.13
2018-12-29T18:45:43.555Z,13.63
2018-12-29T18:50:46.147Z,14.53
2018-12-29T18:55:49.621Z,15.57
2018-12-29T19:00:51.918Z,13.67
2018-12-29T19:05:54.729Z,12.33
2018-12-29T19:10:57.424Z,13.23
2018-12-29T19:16:00.458Z,15.17
2018-12-29T19:21:03.095Z,18.87
2018-12-29T19:26:06.011Z,14.53
2018-12-29T19:31:09.371Z,15.30
2018-12-29T19:36:11.524Z,17.50
2018-12-29T19:41:13.925Z,16.77
2018-12-29T19:46:16.355Z,17.20
2018-12-29T19:51:19.381Z,19.60
2018-12-29T19:56:22.115Z,19.87
2018-12-29T20:01:24.276Z,20.73
2018-12-29T20:06:26.726Z,19.97
2018-12-29T20:11:29.151Z,23.87
2018-12-29T20:16:31.676Z,22.57
2018-12-29T20:21:34.799Z,20.00
2018-12-29T20:26:38.180Z,21.83
2018-12-29T20:31:40.452Z,21.97
2018-12-29T20:36:42.587Z,29.97
2018-12-29T20:41:45.139Z,22.83
2018-12-29T20:46:47.365Z,24.87
2018-12-29T20:51:50.017Z,22.43
2018-12-29T20:56:52.700Z,22.40
2018-12-29T21:01:55.160Z,24.33
2018-12-29T21:06:57.869Z,21.30
2018-12-29T21:12:00.377Z,19.57
2018-12-29T21:17:02.715Z,20.47
2018-12-29T21:22:05.448Z,20.07
2018-12-29T21:27:08.272Z,20.17
2018-12-29T21:32:10.421Z,21.17
2018-12-29T21:37:12.581Z,21.47
2018-12-29T21:42:15.261Z,15.53
2018-12-29T21:47:18.126Z,17.47
2018-12-29T21:52:20.321Z,20.30
2018-12-29T21:57:22.463Z,16.87
2018-12-29T22:02:25.206Z,19.67
2018-12-29T22:07:27.912Z,18.00
2018-12-29T22:12:30.603Z,21.40
2018-12-29T22:17:33.241Z,18.20
2018-12-29T22:22:36.137Z,20.27
2018-12-29T22:27:38.359Z,17.70
2018-12-29T22:32:40.662Z,18.57
2018-12-29T22:37:42.847Z,15.73
2018-12-29T22:42:45.158Z,16.63
2018-12-29T22:47:47.976Z,17.17
2018-12-29T22:52:50.672Z,18.33
2018-12-29T22:57:53.181Z,15.77
2018-12-29T23:02:55.356Z,14.80
2018-12-29T23:07:58.642Z,14.40
2018-12-29T23:13:01.395Z,14.17
2018-12-29T23:18:04.624Z,16.77
2018-12-29T23:23:07.848Z,14.10
2018-12-29T23:28:10.496Z,13.93
2018-12-29T23:33:13.199Z,13.07
2018-12-29T23:38:15.494Z,13.60
2018-12-29T23:43:17.679Z,15.07
2018-12-29T23:48:19.884Z,15.60
2018-12-29T23:53:22.592Z,14.03
2018-12-29T23:58:25.385Z,13.63
